createdAt,value
2023-01-18T00:00:48.005Z,13.13
2023-01-18T00:03:14.928Z,13.02
2023-01-18T00:05:42.485Z,13.04
2023-01-18T00:08:14.432Z,13.06
2023-01-18T00:10:41.596Z,13.12
2023-01-18T00:13:08.753Z,13.14
2023-01-18T00:15:36.307Z,13.09
2023-01-18T00:18:03.507Z,13.09
2023-01-18T00:20:31.535Z,13.03
2023-01-18T00:23:01.945Z,13.04
2023-01-18T00:25:30.286Z,13.00
2023-01-18T00:27:57.359Z,13.03
2023-01-18T00:30:27.661Z,13.09
2023-01-18T00:32:58.634Z,13.07
2023-01-18T00:35:26.282Z,13.09
2023-01-18T00:37:54.145Z,13.07
2023-01-18T00:40:22.530Z,13.03
2023-01-18T00:43:07.945Z,13.02
2023-01-18T00:45:35.021Z,13.01
2023-01-18T00:48:02.843Z,13.00
2023-01-18T00:50:30.462Z,13.09
2023-01-18T00:52:59.065Z,13.05
2023-01-18T00:55:26.804Z,13.05
2023-01-18T00:57:53.970Z,12.98
2023-01-18T01:00:27.013Z,12.96
2023-01-18T01:02:54.537Z,12.88
2023-01-18T01:05:42.266Z,12.85
2023-01-18T01:08:17.066Z,12.87
2023-01-18T01:10:49.213Z,12.83
2023-01-18T01:13:40.568Z,12.78
2023-01-18T01:16:30.400Z,12.63
2023-01-18T01:19:15.685Z,12.73
2023-01-18T01:22:01.170Z,12.97
2023-01-18T01:24:46.666Z,13.15
2023-01-18T01:27:17.556Z,13.32
2023-01-18T01:29:44.568Z,13.43
2023-01-18T01:32:11.596Z,13.48
2023-01-18T01:34:38.441Z,13.68
2023-01-18T01:37:05.660Z,13.98
2023-01-18T01:39:32.531Z,13.98
2023-01-18T01:41:59.501Z,14.17
2023-01-18T01:44:29.919Z,14.21
2023-01-18T01:47:14.730Z,14.14
2023-01-18T01:49:55.045Z,14.21
2023-01-18T01:52:35.914Z,14.14
2023-01-18T01:55:13.507Z,14.14
2023-01-18T01:57:51.111Z,14.17
2023-01-18T02:00:20.446Z,14.13
2023-01-18T02:02:53.647Z,14.17
2023-01-18T02:05:20.994Z,14.10
2023-01-18T02:07:48.880Z,14.11
2023-01-18T02:10:16.338Z,13.98
2023-01-18T02:12:47.099Z,14.05
2023-01-18T02:15:15.005Z,14.03
2023-01-18T02:18:29.979Z,13.94
2023-01-18T02:21:06.098Z,14.03
2023-01-18T02:24:21.572Z,14.29
2023-01-18T02:26:59.552Z,14.34
2023-01-18T02:29:32.498Z,14.26
2023-01-18T02:32:05.336Z,14.30
2023-01-18T02:34:47.536Z,14.27
2023-01-18T02:37:39.969Z,14.27
2023-01-18T02:40:26.136Z,14.21
2023-01-18T02:43:12.058Z,14.18
2023-01-18T02:46:01.789Z,14.19
2023-01-18T02:48:41.930Z,14.12
2023-01-18T02:51:09.876Z,14.10
2023-01-18T02:53:45.254Z,14.03
2023-01-18T02:56:33.931Z,14.05
2023-01-18T02:59:05.197Z,13.96
2023-01-18T03:01:41.546Z,14.01
2023-01-18T03:04:22.656Z,14.02
2023-01-18T03:06:59.149Z,14.05
2023-01-18T03:09:27.512Z,13.96
2023-01-18T03:12:16.114Z,13.92
2023-01-18T03:15:10.117Z,13.91
2023-01-18T03:17:51.490Z,13.98
2023-01-18T03:20:25.907Z,13.92
2023-01-18T03:23:21.827Z,13.90
2023-01-18T03:25:51.113Z,13.86
2023-01-18T03:28:52.758Z,13.91
2023-01-18T03:32:20.111Z,13.82
2023-01-18T03:34:59.188Z,13.71
2023-01-18T03:37:38.875Z,13.70
2023-01-18T03:40:23.796Z,13.60
2023-01-18T03:43:03.747Z,13.59
2023-01-18T03:45:37.543Z,13.68
2023-01-18T03:48:07.262Z,13.69
2023-01-18T03:50:49.698Z,13.74
2023-01-18T03:53:33.747Z,13.81
2023-01-18T03:56:18.417Z,13.83
2023-01-18T03:58:47.566Z,13.89
2023-01-18T04:01:14.778Z,13.89
2023-01-18T04:03:41.704Z,13.81
2023-01-18T04:06:08.964Z,13.75
2023-01-18T04:08:35.823Z,13.70
2023-01-18T04:11:02.790Z,13.69
2023-01-18T04:13:29.760Z,13.69
2023-01-18T04:15:56.721Z,13.66
2023-01-18T04:18:23.602Z,13.65
2023-01-18T04:20:50.507Z,13.61
2023-01-18T04:23:17.607Z,13.61
2023-01-18T04:25:50.051Z,13.50
2023-01-18T04:28:25.359Z,13.52
2023-01-18T04:30:54.476Z,13.55
2023-01-18T04:33:23.401Z,13.51
2023-01-18T04:35:51.855Z,13.58
2023-01-18T04:38:20.406Z,13.57
2023-01-18T04:40:47.426Z,13.48
2023-01-18T04:43:14.312Z,13.42
2023-01-18T04:45:41.214Z,13.46
2023-01-18T04:48:08.159Z,13.59
2023-01-18T04:50:35.118Z,13.64
2023-01-18T04:53:02.570Z,13.55
2023-01-18T04:55:29.500Z,13.46
2023-01-18T04:57:57.564Z,13.44
2023-01-18T05:00:24.745Z,13.56
2023-01-18T05:02:51.709Z,13.49
2023-01-18T05:05:18.692Z,13.51
2023-01-18T05:07:45.730Z,13.59
2023-01-18T05:10:13.185Z,13.59
2023-01-18T05:12:41.500Z,13.61
2023-01-18T05:15:08.980Z,13.66
2023-01-18T05:17:35.964Z,13.74
2023-01-18T05:20:06.436Z,13.78
2023-01-18T05:22:34.068Z,13.62
2023-01-18T05:25:01.371Z,13.59
2023-01-18T05:30:14.398Z,13.55
2023-01-18T05:32:43.708Z,13.47
2023-01-18T05:35:12.439Z,13.34
2023-01-18T05:37:40.252Z,13.31
2023-01-18T05:40:12.403Z,13.31
2023-01-18T05:42:40.804Z,13.29
2023-01-18T05:45:08.195Z,13.30
2023-01-18T05:47:35.212Z,13.24
2023-01-18T05:50:02.464Z,13.36
2023-01-18T05:52:29.819Z,13.40
2023-01-18T05:54:56.797Z,13.39
2023-01-18T05:57:24.013Z,13.33
2023-01-18T05:59:50.847Z,13.45
2023-01-18T06:02:18.776Z,13.43
2023-01-18T06:04:45.710Z,13.28
2023-01-18T06:07:13.017Z,13.29
2023-01-18T06:09:42.666Z,13.25
2023-01-18T06:12:10.448Z,13.28
2023-01-18T06:14:37.415Z,13.33
2023-01-18T06:17:04.725Z,13.37
2023-01-18T06:19:31.522Z,13.31
2023-01-18T06:21:58.480Z,13.28
2023-01-18T06:24:25.560Z,13.23
2023-01-18T06:26:52.420Z,13.27
2023-01-18T06:29:19.317Z,13.20
2023-01-18T06:31:46.369Z,13.20
2023-01-18T06:34:13.402Z,13.18
2023-01-18T06:36:40.566Z,13.11
2023-01-18T06:39:07.678Z,13.06
2023-01-18T06:41:34.767Z,13.05
2023-01-18T06:44:01.859Z,13.04
2023-01-18T06:46:29.319Z,13.06
2023-01-18T06:48:56.268Z,13.04
2023-01-18T06:51:24.281Z,13.06
2023-01-18T06:53:51.356Z,13.05
2023-01-18T06:56:18.390Z,13.04
2023-01-18T06:58:45.406Z,13.13
2023-01-18T07:01:12.672Z,13.21
2023-01-18T07:03:39.686Z,13.22
2023-01-18T07:06:07.597Z,13.27
2023-01-18T07:08:35.672Z,13.29
2023-01-18T07:11:08.600Z,13.46
2023-01-18T07:13:35.886Z,13.45
2023-01-18T07:16:02.920Z,13.85
2023-01-18T07:18:30.689Z,13.95
2023-01-18T07:21:07.370Z,14.21
2023-01-18T07:23:36.580Z,14.43
2023-01-18T07:26:12.717Z,14.48
2023-01-18T07:28:39.907Z,14.54
2023-01-18T07:31:08.132Z,14.66
2023-01-18T07:33:36.178Z,14.80
2023-01-18T07:36:06.392Z,14.90
2023-01-18T07:38:34.137Z,14.92
2023-01-18T07:41:08.369Z,15.04
2023-01-18T07:43:39.907Z,15.14
2023-01-18T07:46:09.570Z,15.21
2023-01-18T07:48:38.871Z,15.24
2023-01-18T07:51:08.664Z,15.55
2023-01-18T07:53:37.207Z,15.58
2023-01-18T07:56:07.611Z,15.43
2023-01-18T07:58:37.945Z,15.54
2023-01-18T08:01:14.083Z,15.76
2023-01-18T08:03:43.715Z,15.90
2023-01-18T08:06:13.696Z,15.89
2023-01-18T08:08:40.909Z,15.97
2023-01-18T08:11:08.231Z,16.09
2023-01-18T08:13:35.573Z,16.05
2023-01-18T08:16:05.665Z,16.08
2023-01-18T08:18:32.912Z,16.11
2023-01-18T08:21:00.028Z,16.20
2023-01-18T08:23:27.061Z,16.20
2023-01-18T08:25:55.534Z,16.30
2023-01-18T08:28:22.651Z,16.39
2023-01-18T08:30:49.960Z,16.43
2023-01-18T08:33:16.951Z,16.46
2023-01-18T08:35:48.268Z,16.56
2023-01-18T08:38:16.822Z,16.60
2023-01-18T08:40:43.925Z,16.71
2023-01-18T08:43:11.911Z,16.77
2023-01-18T08:45:39.205Z,16.81
2023-01-18T08:48:09.709Z,16.87
2023-01-18T08:50:39.280Z,16.75
2023-01-18T08:53:06.836Z,16.87
2023-01-18T08:55:36.701Z,16.78
2023-01-18T08:58:04.098Z,16.85
2023-01-18T09:00:31.221Z,16.96
2023-01-18T09:02:59.992Z,17.09
2023-01-18T09:05:27.197Z,17.14
2023-01-18T09:07:55.459Z,17.16
2023-01-18T09:10:23.082Z,17.15
2023-01-18T09:12:52.751Z,17.21
2023-01-18T09:15:20.756Z,17.20
2023-01-18T09:17:47.590Z,17.38
2023-01-18T09:20:16.535Z,17.45
2023-01-18T09:22:47.769Z,17.58
2023-01-18T09:25:15.680Z,17.51
2023-01-18T09:27:42.742Z,17.43
2023-01-18T09:30:10.290Z,17.58
2023-01-18T09:32:37.298Z,17.67
2023-01-18T09:35:06.228Z,17.67
2023-01-18T09:37:33.339Z,17.76
2023-01-18T09:40:00.516Z,17.97
2023-01-18T09:42:36.769Z,17.92
2023-01-18T09:45:04.608Z,18.03
2023-01-18T09:47:43.204Z,18.10
2023-01-18T09:50:13.744Z,18.01
2023-01-18T09:52:53.931Z,18.08
2023-01-18T09:55:28.766Z,18.07
2023-01-18T09:58:20.647Z,18.13
2023-01-18T10:00:49.558Z,18.18
2023-01-18T10:03:28.510Z,18.09
2023-01-18T10:06:11.399Z,17.99
2023-01-18T10:09:04.979Z,18.27
2023-01-18T10:11:55.082Z,18.13
2023-01-18T10:14:45.339Z,18.10
2023-01-18T10:17:17.921Z,18.08
2023-01-18T10:19:44.924Z,18.12
2023-01-18T10:22:29.478Z,18.05
2023-01-18T10:25:18.900Z,17.97
2023-01-18T10:27:55.354Z,18.16
2023-01-18T10:30:45.165Z,18.10
2023-01-18T10:33:28.042Z,18.09
2023-01-18T10:36:00.928Z,18.15
2023-01-18T10:38:30.418Z,18.32
2023-01-18T10:41:03.492Z,18.41
2023-01-18T10:43:31.977Z,18.33
2023-01-18T10:45:59.311Z,18.36
2023-01-18T10:48:28.256Z,18.32
2023-01-18T10:51:04.007Z,18.39
2023-01-18T10:53:34.167Z,18.33
2023-01-18T10:56:08.135Z,18.42
2023-01-18T10:58:47.006Z,18.21
2023-01-18T11:01:36.497Z,18.25
2023-01-18T11:04:30.001Z,18.32
2023-01-18T11:07:00.724Z,18.21
2023-01-18T11:09:39.474Z,18.36
2023-01-18T11:12:55.009Z,18.36
2023-01-18T11:15:26.186Z,18.42
2023-01-18T11:18:00.415Z,18.54
2023-01-18T11:20:39.604Z,18.57
2023-01-18T11:23:09.498Z,18.65
2023-01-18T11:25:42.805Z,18.47
2023-01-18T11:28:35.241Z,18.64
2023-01-18T11:31:18.684Z,18.66
2023-01-18T11:33:57.489Z,18.69
2023-01-18T11:36:45.345Z,18.65
2023-01-18T11:39:29.500Z,18.84
2023-01-18T11:42:11.697Z,18.81
2023-01-18T11:45:27.523Z,19.09
2023-01-18T11:48:11.641Z,19.03
2023-01-18T11:50:49.421Z,19.06
2023-01-18T11:53:34.885Z,19.14
2023-01-18T11:56:07.933Z,19.07
2023-01-18T11:58:36.415Z,19.19
2023-01-18T12:01:34.108Z,19.25
2023-01-18T12:04:14.234Z,19.20
2023-01-18T12:07:18.270Z,19.40
2023-01-18T12:09:55.487Z,19.43
2023-01-18T12:13:00.571Z,19.38
2023-01-18T12:16:08.244Z,19.51
2023-01-18T12:18:50.751Z,19.40
2023-01-18T12:21:32.133Z,19.43
2023-01-18T12:24:10.853Z,19.38
2023-01-18T12:26:50.062Z,19.50
2023-01-18T12:29:55.540Z,19.43
2023-01-18T12:32:22.815Z,19.45
2023-01-18T12:35:24.012Z,19.40
2023-01-18T12:37:51.810Z,19.30
2023-01-18T12:40:37.077Z,19.02
2023-01-18T12:43:10.084Z,19.16
2023-01-18T12:45:40.479Z,19.05
2023-01-18T12:48:26.101Z,18.95
2023-01-18T12:50:55.133Z,18.86
2023-01-18T12:53:31.968Z,18.83
2023-01-18T12:56:04.236Z,18.71
2023-01-18T12:58:31.758Z,18.55
2023-01-18T13:01:04.419Z,18.44
2023-01-18T13:03:53.621Z,18.40
2023-01-18T13:06:21.394Z,18.49
2023-01-18T13:09:15.764Z,18.34
2023-01-18T13:11:44.448Z,18.31
2023-01-18T13:14:33.691Z,18.44
2023-01-18T13:17:14.349Z,18.38
2023-01-18T13:19:58.768Z,18.26
2023-01-18T13:22:45.140Z,18.24
2023-01-18T13:25:33.020Z,18.30
2023-01-18T13:28:14.056Z,18.23
2023-01-18T13:31:03.399Z,18.13
2023-01-18T13:33:40.712Z,18.06
2023-01-18T13:36:12.445Z,18.05
2023-01-18T13:38:52.508Z,18.09
2023-01-18T13:41:25.011Z,17.99
2023-01-18T13:43:51.945Z,17.84
2023-01-18T13:46:25.357Z,17.79
2023-01-18T13:48:57.671Z,17.64
2023-01-18T13:51:33.460Z,17.66
2023-01-18T13:54:00.539Z,17.62
2023-01-18T13:56:29.524Z,17.56
2023-01-18T13:59:21.256Z,17.37
2023-01-18T14:01:51.491Z,17.35
2023-01-18T14:04:21.105Z,17.27
2023-01-18T14:06:49.737Z,17.21
2023-01-18T14:09:19.850Z,17.26
2023-01-18T14:11:54.374Z,17.12
2023-01-18T14:14:21.222Z,17.19
2023-01-18T14:16:56.343Z,17.15
2023-01-18T14:19:24.429Z,17.01
2023-01-18T14:22:29.656Z,16.99
2023-01-18T14:25:32.896Z,16.93
2023-01-18T14:28:07.738Z,16.92
2023-01-18T14:30:37.200Z,16.88
2023-01-18T14:33:33.890Z,16.73
2023-01-18T14:36:02.057Z,16.60
2023-01-18T14:38:30.711Z,16.58
2023-01-18T14:41:06.021Z,16.47
2023-01-18T14:43:36.865Z,16.49
2023-01-18T14:46:03.792Z,16.53
2023-01-18T14:48:34.791Z,16.60
2023-01-18T14:51:05.119Z,16.40
2023-01-18T14:53:36.966Z,16.40
2023-01-18T14:56:25.962Z,16.36
2023-01-18T14:58:57.357Z,16.26
2023-01-18T15:01:26.761Z,16.20
2023-01-18T15:03:56.196Z,16.16
2023-01-18T15:07:03.995Z,16.14
2023-01-18T15:09:33.706Z,16.08
2023-01-18T15:12:04.662Z,16.12
2023-01-18T15:14:38.471Z,16.03
2023-01-18T15:17:11.696Z,16.08
2023-01-18T15:19:44.201Z,15.87
2023-01-18T15:22:17.006Z,15.91
2023-01-18T15:24:46.453Z,15.85
2023-01-18T15:27:18.885Z,15.80
2023-01-18T15:29:53.638Z,15.84
2023-01-18T15:32:33.295Z,15.82
2023-01-18T15:35:01.648Z,15.82
2023-01-18T15:37:34.766Z,15.74
2023-01-18T15:40:03.298Z,15.72
2023-01-18T15:42:46.807Z,15.71
2023-01-18T15:45:17.741Z,15.61
2023-01-18T15:47:50.700Z,15.64
2023-01-18T15:50:23.660Z,15.61
2023-01-18T15:53:02.198Z,15.57
2023-01-18T15:55:41.399Z,15.56
2023-01-18T15:58:18.211Z,15.47
2023-01-18T16:00:54.093Z,15.49
2023-01-18T16:03:26.373Z,15.48
2023-01-18T16:06:15.255Z,15.51
2023-01-18T16:09:12.731Z,15.53
2023-01-18T16:11:57.724Z,15.52
2023-01-18T16:14:27.944Z,15.57
2023-01-18T16:16:57.167Z,15.53
2023-01-18T16:19:42.282Z,15.39
2023-01-18T16:22:29.840Z,15.41
2023-01-18T16:25:01.529Z,15.41
2023-01-18T16:27:31.628Z,15.34
2023-01-18T16:30:18.146Z,15.38
2023-01-18T16:32:45.281Z,15.35
2023-01-18T16:35:14.312Z,15.42
2023-01-18T16:37:44.494Z,15.37
2023-01-18T16:40:23.188Z,15.38
2023-01-18T16:43:05.511Z,15.24
2023-01-18T16:45:37.960Z,15.20
2023-01-18T16:48:05.684Z,15.26
2023-01-18T16:50:33.083Z,15.32
2023-01-18T16:53:00.049Z,15.34
2023-01-18T16:55:27.214Z,15.27
2023-01-18T16:57:54.305Z,15.19
2023-01-18T17:00:28.345Z,15.22
2023-01-18T17:02:55.706Z,15.22
2023-01-18T17:05:22.880Z,15.23
2023-01-18T17:07:52.285Z,15.20
2023-01-18T17:10:31.415Z,15.16
2023-01-18T17:13:00.214Z,15.16
2023-01-18T17:15:30.005Z,15.05
2023-01-18T17:17:57.145Z,14.97
2023-01-18T17:20:26.345Z,14.97
2023-01-18T17:22:54.371Z,15.05
2023-01-18T17:25:22.705Z,15.04
2023-01-18T17:27:50.277Z,14.97
2023-01-18T17:30:21.549Z,14.92
2023-01-18T17:32:49.127Z,15.06
2023-01-18T17:35:22.991Z,14.98
2023-01-18T17:37:57.387Z,15.07
2023-01-18T17:40:39.589Z,15.06
2023-01-18T17:43:32.081Z,15.00
2023-01-18T17:46:03.393Z,15.04
2023-01-18T17:48:30.555Z,15.06
2023-01-18T17:50:57.476Z,14.94
2023-01-18T17:53:24.487Z,14.97
2023-01-18T17:55:51.443Z,14.95
2023-01-18T17:58:18.381Z,14.90
2023-01-18T18:00:45.428Z,14.89
2023-01-18T18:03:13.540Z,14.88
2023-01-18T18:05:40.500Z,14.87
2023-01-18T18:08:08.307Z,14.85
2023-01-18T18:10:35.244Z,14.85
2023-01-18T18:13:02.539Z,14.86
2023-01-18T18:15:30.517Z,14.87
2023-01-18T18:17:57.524Z,14.87
2023-01-18T18:20:24.882Z,14.82
2023-01-18T18:22:51.845Z,14.78
2023-01-18T18:25:18.905Z,14.78
2023-01-18T18:27:47.190Z,14.81
2023-01-18T18:30:15.612Z,14.80
2023-01-18T18:32:42.698Z,14.78
2023-01-18T18:35:23.538Z,14.69
2023-01-18T18:37:52.300Z,14.73
2023-01-18T18:40:19.372Z,14.67
2023-01-18T18:42:56.388Z,14.81
2023-01-18T18:45:30.104Z,14.78
2023-01-18T18:47:57.056Z,14.73
2023-01-18T18:50:24.049Z,14.72
2023-01-18T18:52:51.143Z,14.60
2023-01-18T18:55:18.544Z,14.57
2023-01-18T18:57:45.648Z,14.60
2023-01-18T19:00:13.712Z,14.70
2023-01-18T19:02:40.880Z,14.69
2023-01-18T19:05:10.692Z,14.73
2023-01-18T19:07:38.247Z,14.74
2023-01-18T19:10:06.824Z,14.69
2023-01-18T19:12:33.930Z,14.55
2023-01-18T19:15:01.000Z,14.45
2023-01-18T19:17:31.057Z,14.40
2023-01-18T19:19:59.416Z,14.59
2023-01-18T19:22:26.678Z,14.56
2023-01-18T19:24:53.681Z,14.61
2023-01-18T19:27:21.904Z,14.59
2023-01-18T19:29:48.787Z,14.56
2023-01-18T19:32:16.144Z,14.41
2023-01-18T19:34:43.242Z,14.35
2023-01-18T19:37:10.190Z,14.28
2023-01-18T19:39:37.107Z,14.28
2023-01-18T19:42:04.543Z,14.26
2023-01-18T19:44:31.685Z,14.31
2023-01-18T19:46:58.771Z,14.29
2023-01-18T19:49:26.128Z,14.32
2023-01-18T19:51:54.756Z,14.32
2023-01-18T19:54:22.327Z,14.28
2023-01-18T19:56:49.676Z,14.34
2023-01-18T19:59:16.756Z,14.26
2023-01-18T20:01:44.704Z,14.24
2023-01-18T20:04:13.586Z,14.27
2023-01-18T20:06:43.484Z,14.22
2023-01-18T20:09:19.565Z,14.21
2023-01-18T20:11:48.174Z,14.21
2023-01-18T20:14:18.704Z,14.23
2023-01-18T20:16:48.819Z,14.26
2023-01-18T20:19:17.588Z,14.34
2023-01-18T20:21:44.762Z,14.40
2023-01-18T20:24:11.822Z,14.39
2023-01-18T20:26:42.675Z,14.43
2023-01-18T20:29:10.401Z,14.34
2023-01-18T20:31:38.550Z,14.37
2023-01-18T20:34:06.908Z,14.43
2023-01-18T20:36:37.684Z,14.45
2023-01-18T20:39:05.889Z,14.47
2023-01-18T20:41:32.950Z,14.38
2023-01-18T20:43:59.944Z,14.44
2023-01-18T20:46:27.225Z,14.50
2023-01-18T20:48:54.052Z,14.54
2023-01-18T20:51:24.376Z,14.41
2023-01-18T20:54:25.877Z,14.39
2023-01-18T20:57:02.284Z,14.28
2023-01-18T20:59:31.116Z,14.30
2023-01-18T21:01:58.298Z,14.26
2023-01-18T21:04:33.422Z,14.19
2023-01-18T21:07:00.278Z,14.16
2023-01-18T21:09:27.542Z,14.12
2023-01-18T21:11:54.495Z,14.04
2023-01-18T21:14:21.376Z,14.02
2023-01-18T21:16:48.364Z,13.98
2023-01-18T21:19:15.264Z,13.99
2023-01-18T21:21:42.378Z,13.86
2023-01-18T21:24:09.250Z,13.88
2023-01-18T21:26:37.977Z,13.94
2023-01-18T21:29:05.846Z,13.99
2023-01-18T21:31:32.889Z,13.93
2023-01-18T21:33:59.760Z,13.87
2023-01-18T21:36:26.672Z,13.82
2023-01-18T21:38:53.740Z,13.85
2023-01-18T21:41:39.651Z,13.84
2023-01-18T21:44:25.135Z,13.78
2023-01-18T21:46:52.805Z,13.89
2023-01-18T21:52:58.479Z,14.14
2023-01-18T21:55:25.333Z,13.97
2023-01-18T21:58:10.926Z,14.05
2023-01-18T22:00:39.572Z,14.07
2023-01-18T22:03:06.819Z,14.07
2023-01-18T22:05:34.491Z,14.17
2023-01-18T22:08:03.720Z,14.00
2023-01-18T22:10:30.620Z,14.17
2023-01-18T22:12:58.040Z,14.21
2023-01-18T22:15:24.975Z,14.05
2023-01-18T22:17:51.853Z,14.02
2023-01-18T22:20:18.817Z,14.05
2023-01-18T22:22:46.603Z,14.02
2023-01-18T22:25:13.859Z,14.05
2023-01-18T22:27:40.684Z,14.02
2023-01-18T22:30:08.769Z,14.01
2023-01-18T22:32:35.621Z,13.94
2023-01-18T22:35:02.531Z,13.85
2023-01-18T22:37:29.750Z,13.86
2023-01-18T22:39:57.511Z,13.76
2023-01-18T22:42:25.672Z,13.65
2023-01-18T22:44:52.622Z,13.73
2023-01-18T22:47:19.544Z,13.70
2023-01-18T22:49:46.440Z,13.67
2023-01-18T22:52:13.464Z,13.74
2023-01-18T22:54:40.344Z,13.68
2023-01-18T22:57:07.220Z,13.76
2023-01-18T22:59:33.993Z,13.87
2023-01-18T23:02:00.907Z,13.84
2023-01-18T23:04:29.502Z,13.72
2023-01-18T23:07:00.928Z,13.82
2023-01-18T23:09:27.857Z,14.03
2023-01-18T23:11:55.061Z,14.07
2023-01-18T23:14:40.471Z,13.96
2023-01-18T23:17:27.796Z,13.97
2023-01-18T23:19:55.150Z,13.86
2023-01-18T23:22:22.078Z,13.92
2023-01-18T23:24:49.740Z,13.95
2023-01-18T23:27:16.796Z,14.10
2023-01-18T23:29:43.832Z,14.11
2023-01-18T23:32:10.773Z,14.11
2023-01-18T23:34:37.644Z,14.20
2023-01-18T23:37:04.483Z,14.18
2023-01-18T23:39:49.858Z,14.19
2023-01-18T23:42:35.685Z,14.33
2023-01-18T23:45:21.089Z,14.31
2023-01-18T23:48:06.323Z,14.38
2023-01-18T23:50:51.925Z,14.45
2023-01-18T23:53:37.168Z,14.51
2023-01-18T23:56:04.050Z,14.43
2023-01-18T23:58:30.957Z,14.54
